createdAt,value
2022-11-04T00:02:50.579Z,0.00
2022-11-04T00:08:22.263Z,0.00
2022-11-04T00:13:53.820Z,0.00
2022-11-04T00:19:25.934Z,0.00
2022-11-04T00:24:57.384Z,0.00
2022-11-04T00:30:28.887Z,0.00
2022-11-04T00:36:00.643Z,0.00
2022-11-04T00:41:32.333Z,0.00
2022-11-04T00:47:04.135Z,0.00
2022-11-04T00:52:35.960Z,0.00
2022-11-04T00:58:07.737Z,0.00
2022-11-04T01:03:39.724Z,0.00
2022-11-04T01:09:11.249Z,0.00
2022-11-04T01:14:42.893Z,0.00
2022-11-04T01:20:14.506Z,0.00
2022-11-04T01:25:46.202Z,1.00
2022-11-04T01:31:17.965Z,1.00
2022-11-04T01:36:49.651Z,0.00
2022-11-04T01:42:21.041Z,0.00
2022-11-04T01:47:52.592Z,1.00
2022-11-04T01:53:24.178Z,0.00
2022-11-04T01:58:55.766Z,0.00
2022-11-04T02:04:27.418Z,0.00
2022-11-04T02:09:59.155Z,0.00
2022-11-04T02:15:31.075Z,0.00
2022-11-04T02:21:02.727Z,0.00
2022-11-04T02:26:34.356Z,0.00
2022-11-04T02:32:05.835Z,0.00
2022-11-04T02:37:37.524Z,0.00
2022-11-04T02:43:09.351Z,0.00
2022-11-04T02:48:40.673Z,0.00
2022-11-04T02:54:12.394Z,0.00
2022-11-04T02:59:44.006Z,0.00
2022-11-04T03:05:15.503Z,0.00
2022-11-04T03:10:46.947Z,1.00
2022-11-04T03:16:18.176Z,0.00
2022-11-04T03:21:49.633Z,0.00
2022-11-04T03:27:20.806Z,0.00
2022-11-04T03:32:58.291Z,0.00
2022-11-04T03:38:29.789Z,0.00
2022-11-04T03:44:01.440Z,1.00
2022-11-04T03:49:32.947Z,0.00
2022-11-04T03:55:04.511Z,0.00
2022-11-04T04:00:36.291Z,0.00
2022-11-04T04:06:07.858Z,0.00
2022-11-04T04:11:39.116Z,1.00
2022-11-04T04:22:42.045Z,0.00
2022-11-04T04:28:19.328Z,1.00
2022-11-04T04:33:50.616Z,0.00
2022-11-04T04:39:22.150Z,0.00
2022-11-04T04:44:53.935Z,0.00
2022-11-04T04:50:25.563Z,0.00
2022-11-04T04:55:56.807Z,1.00
2022-11-04T05:01:28.373Z,0.00
2022-11-04T05:06:59.442Z,0.00
2022-11-04T05:12:30.971Z,1.00
2022-11-04T05:18:02.580Z,0.00
2022-11-04T05:23:34.082Z,0.00
2022-11-04T05:29:05.625Z,0.00
2022-11-04T05:34:36.908Z,0.00
2022-11-04T05:40:08.582Z,0.00
2022-11-04T05:45:39.856Z,3.00
2022-11-04T05:51:11.152Z,7.00
2022-11-04T05:56:42.511Z,10.00
2022-11-04T06:02:14.263Z,16.00
2022-11-04T06:07:45.569Z,17.00
2022-11-04T06:13:16.829Z,29.00
2022-11-04T06:18:48.118Z,28.00
2022-11-04T06:24:21.223Z,24.00
2022-11-04T06:29:52.657Z,52.00
2022-11-04T06:35:30.055Z,331.00
2022-11-04T06:41:01.735Z,293.00
2022-11-04T06:46:33.165Z,357.00
2022-11-04T06:52:04.424Z,370.00
2022-11-04T06:57:37.284Z,484.00
2022-11-04T07:03:09.215Z,394.00
2022-11-04T07:14:09.796Z,971.00
2022-11-04T07:19:41.454Z,1244.00
2022-11-04T07:25:13.236Z,992.00
2022-11-04T07:30:44.923Z,512.00
2022-11-04T07:36:16.261Z,576.00
2022-11-04T07:41:48.192Z,574.00
2022-11-04T07:52:48.780Z,1043.00
2022-11-04T08:03:49.913Z,984.00
2022-11-04T08:14:50.390Z,1516.00
2022-11-04T08:20:21.995Z,1863.00
2022-11-04T08:25:53.601Z,3989.00
2022-11-04T08:36:54.420Z,3522.00
2022-11-04T08:42:26.235Z,3653.00
2022-11-04T08:48:01.388Z,3684.00
2022-11-04T09:09:57.966Z,5922.00
2022-11-04T09:15:29.631Z,5059.00
2022-11-04T09:21:00.915Z,4858.00
2022-11-04T09:26:32.852Z,3529.00
2022-11-04T09:32:04.693Z,3006.00
2022-11-04T09:43:05.332Z,2684.00
2022-11-04T09:48:37.251Z,2387.00
2022-11-04T09:54:08.920Z,2704.00
2022-11-04T09:59:40.840Z,3601.00
2022-11-04T10:10:42.219Z,4284.00
2022-11-04T10:16:13.784Z,5939.00
2022-11-04T10:21:45.785Z,6182.00
2022-11-04T10:27:17.203Z,3924.00
2022-11-04T10:32:48.539Z,4206.00
2022-11-04T10:43:49.471Z,3246.00
2022-11-04T10:54:50.820Z,5250.00
2022-11-04T11:00:22.576Z,5757.00
2022-11-04T11:05:54.177Z,6315.00
2022-11-04T11:11:26.128Z,6721.00
2022-11-04T11:22:27.556Z,5933.00
2022-11-04T11:33:28.780Z,4829.00
2022-11-04T11:39:00.644Z,4790.00
2022-11-04T11:44:32.422Z,4766.00
2022-11-04T11:50:04.282Z,4725.00
2022-11-04T11:52:16.613Z,4694.00
2022-11-04T12:03:20.810Z,4689.00
2022-11-04T12:14:23.214Z,4778.00
2022-11-04T12:19:54.539Z,5081.00
2022-11-04T12:25:25.926Z,4450.00
2022-11-04T12:30:57.953Z,5049.00
2022-11-04T12:36:29.614Z,3898.00
2022-11-04T12:47:33.267Z,2613.00
2022-11-04T12:53:05.190Z,2048.00
2022-11-04T12:58:37.051Z,2167.00
2022-11-04T13:04:09.239Z,1917.00
2022-11-04T13:09:41.026Z,1615.00
2022-11-04T13:15:12.697Z,1174.00
2022-11-04T13:20:44.590Z,1388.00
2022-11-04T13:26:16.390Z,1308.00
2022-11-04T13:31:48.044Z,923.00
2022-11-04T13:37:19.847Z,1698.00
2022-11-04T13:42:51.792Z,1808.00
2022-11-04T13:48:23.238Z,2266.00
2022-11-04T13:53:54.914Z,1870.00
2022-11-04T13:59:26.837Z,1935.00
2022-11-04T14:04:58.301Z,2114.00
2022-11-04T14:10:29.842Z,2692.00
2022-11-04T14:16:01.585Z,2684.00
2022-11-04T14:21:33.364Z,2783.00
2022-11-04T14:27:05.041Z,3258.00
2022-11-04T14:32:36.825Z,3452.00
2022-11-04T14:38:08.535Z,3504.00
2022-11-04T14:43:40.280Z,3381.00
2022-11-04T14:49:12.138Z,2938.00
2022-11-04T14:54:43.741Z,2485.00
2022-11-04T15:00:15.513Z,2205.00
2022-11-04T15:11:18.561Z,1580.00
2022-11-04T15:16:49.860Z,1460.00
2022-11-04T15:27:50.792Z,1098.00
2022-11-04T15:33:22.577Z,867.00
2022-11-04T15:39:00.284Z,768.00
2022-11-04T15:44:31.975Z,412.00
2022-11-04T15:50:03.836Z,230.00
2022-11-04T15:55:41.448Z,112.00
2022-11-04T16:03:25.790Z,55.00
2022-11-04T16:08:57.512Z,30.00
2022-11-04T16:14:28.908Z,13.00
2022-11-04T16:20:00.819Z,6.00
2022-11-04T16:25:32.713Z,4.00
2022-11-04T16:31:04.560Z,3.00
2022-11-04T16:36:36.329Z,3.00
2022-11-04T16:42:07.956Z,3.00
2022-11-04T16:47:40.023Z,3.00
2022-11-04T16:53:17.283Z,4.00
2022-11-04T16:58:49.080Z,3.00
2022-11-04T17:04:20.942Z,3.00
2022-11-04T17:09:53.591Z,3.00
2022-11-04T17:15:25.447Z,1.00
2022-11-04T17:20:57.223Z,3.00
2022-11-04T17:26:29.159Z,3.00
2022-11-04T17:32:00.864Z,2.00
2022-11-04T17:37:32.744Z,2.00
2022-11-04T17:43:10.310Z,2.00
2022-11-04T17:54:05.620Z,3.00
2022-11-04T18:07:27.559Z,3.00
2022-11-04T18:12:59.350Z,3.00
2022-11-04T18:18:31.162Z,3.00
2022-11-04T18:24:02.833Z,2.00
2022-11-04T18:29:34.216Z,3.00
2022-11-04T18:35:06.196Z,2.00
2022-11-04T18:40:37.928Z,3.00
2022-11-04T18:46:09.727Z,2.00
2022-11-04T18:51:41.614Z,3.00
2022-11-04T18:57:13.273Z,3.00
2022-11-04T19:02:46.211Z,3.00
2022-11-04T19:08:18.015Z,2.00
2022-11-04T19:13:55.108Z,3.00
2022-11-04T19:19:26.675Z,3.00
2022-11-04T19:24:58.372Z,0.00
2022-11-04T19:30:31.318Z,1.00
2022-11-04T19:36:02.975Z,0.00
2022-11-04T19:41:34.510Z,3.00
2022-11-04T19:47:06.372Z,3.00
2022-11-04T19:52:38.354Z,3.00
2022-11-04T19:58:10.480Z,2.00
2022-11-04T20:03:41.883Z,1.00
2022-11-04T20:14:45.654Z,1.00
2022-11-04T20:20:17.270Z,0.00
2022-11-04T20:25:49.364Z,0.00
2022-11-04T20:31:21.148Z,0.00
2022-11-04T20:36:52.817Z,0.00
2022-11-04T20:42:24.746Z,0.00
2022-11-04T20:47:56.175Z,0.00
2022-11-04T20:53:28.250Z,0.00
2022-11-04T20:59:00.213Z,1.00
2022-11-04T21:10:01.371Z,0.00
2022-11-04T21:15:32.810Z,0.00
2022-11-04T21:21:04.924Z,0.00
2022-11-04T21:26:37.154Z,0.00
2022-11-04T21:32:08.743Z,0.00
2022-11-04T21:48:44.235Z,1.00
2022-11-04T21:54:17.802Z,1.00
2022-11-04T22:05:19.093Z,0.00
2022-11-04T22:10:51.308Z,0.00
2022-11-04T22:16:23.251Z,0.00
2022-11-04T22:21:54.876Z,0.00
2022-11-04T22:32:58.389Z,3.00
2022-11-04T22:38:29.911Z,2.00
2022-11-04T22:44:01.807Z,2.00
2022-11-04T22:49:33.349Z,3.00
2022-11-04T22:55:05.413Z,3.00
2022-11-04T23:00:36.979Z,3.00
2022-11-04T23:06:08.911Z,3.00
2022-11-04T23:11:41.150Z,3.00
2022-11-04T23:17:12.896Z,2.00
2022-11-04T23:22:44.853Z,3.00
2022-11-04T23:28:16.548Z,3.00
2022-11-04T23:33:48.290Z,3.00
2022-11-04T23:39:20.217Z,3.00
2022-11-04T23:44:51.948Z,3.00
2022-11-04T23:55:58.020Z,3.00
